sensor_id;sensor_type;location;lat;lon;timestamp;P1;durP1;ratioP1;P2;durP2;ratioP2
1593;SDS011;790;47.000;16.084;2024-03-08T00:00:13;16.40;;;13.17;;
1593;SDS011;790;47.000;16.084;2024-03-08T00:06:38;18.70;;;13.87;;
1593;SDS011;790;47.000;16.084;2024-03-08T00:13:01;16.67;;;14.03;;
1593;SDS011;790;47.000;16.084;2024-03-08T00:19:25;17.60;;;13.70;;
1593;SDS011;790;47.000;16.084;2024-03-08T00:25:47;18.20;;;13.90;;
1593;SDS011;790;47.000;16.084;2024-03-08T00:32:09;19.20;;;14.00;;
1593;SDS011;790;47.000;16.084;2024-03-08T00:38:32;16.10;;;14.00;;
1593;SDS011;790;47.000;16.084;2024-03-08T00:44:55;17.37;;;14.30;;
1593;SDS011;790;47.000;16.084;2024-03-08T00:51:18;16.27;;;13.77;;
1593;SDS011;790;47.000;16.084;2024-03-08T01:02:36;16.60;;;12.97;;
1593;SDS011;790;47.000;16.084;2024-03-08T01:08:58;13.60;;;12.00;;
1593;SDS011;790;47.000;16.084;2024-03-08T01:15:21;14.90;;;12.20;;
1593;SDS011;790;47.000;16.084;2024-03-08T01:21:44;16.63;;;11.97;;
1593;SDS011;790;47.000;16.084;2024-03-08T01:28:06;12.60;;;11.30;;
1593;SDS011;790;47.000;16.084;2024-03-08T01:34:29;14.80;;;12.00;;
1593;SDS011;790;47.000;16.084;2024-03-08T01:40:53;14.93;;;12.10;;
1593;SDS011;790;47.000;16.084;2024-03-08T01:47:16;13.53;;;11.40;;
1593;SDS011;790;47.000;16.084;2024-03-08T01:53:42;12.63;;;10.97;;
1593;SDS011;790;47.000;16.084;2024-03-08T02:05:01;14.10;;;11.37;;
1593;SDS011;790;47.000;16.084;2024-03-08T02:11:24;14.80;;;10.27;;
1593;SDS011;790;47.000;16.084;2024-03-08T02:17:47;11.80;;;10.30;;
1593;SDS011;790;47.000;16.084;2024-03-08T02:24:10;13.93;;;10.03;;
1593;SDS011;790;47.000;16.084;2024-03-08T02:30:33;12.03;;;9.90;;
1593;SDS011;790;47.000;16.084;2024-03-08T02:36:56;13.07;;;10.70;;
1593;SDS011;790;47.000;16.084;2024-03-08T02:43:19;12.80;;;11.00;;
1593;SDS011;790;47.000;16.084;2024-03-08T02:49:44;27.40;;;19.00;;
1593;SDS011;790;47.000;16.084;2024-03-08T02:56:06;13.60;;;11.37;;
1593;SDS011;790;47.000;16.084;2024-03-08T03:07:28;13.47;;;11.03;;
1593;SDS011;790;47.000;16.084;2024-03-08T03:13:51;13.17;;;10.93;;
1593;SDS011;790;47.000;16.084;2024-03-08T03:20:13;13.30;;;10.73;;
1593;SDS011;790;47.000;16.084;2024-03-08T03:26:43;12.30;;;10.90;;
1593;SDS011;790;47.000;16.084;2024-03-08T03:33:08;10.83;;;9.47;;
1593;SDS011;790;47.000;16.084;2024-03-08T03:39:32;11.00;;;8.93;;
1593;SDS011;790;47.000;16.084;2024-03-08T03:46:01;9.73;;;8.23;;
1593;SDS011;790;47.000;16.084;2024-03-08T03:52:24;10.23;;;8.97;;
1593;SDS011;790;47.000;16.084;2024-03-08T03:58:46;11.93;;;8.83;;
1593;SDS011;790;47.000;16.084;2024-03-08T04:10:07;9.50;;;8.50;;
1593;SDS011;790;47.000;16.084;2024-03-08T04:16:31;11.73;;;9.17;;
1593;SDS011;790;47.000;16.084;2024-03-08T04:22:53;9.43;;;8.43;;
1593;SDS011;790;47.000;16.084;2024-03-08T04:29:17;9.53;;;8.47;;
1593;SDS011;790;47.000;16.084;2024-03-08T04:35:40;10.03;;;8.67;;
1593;SDS011;790;47.000;16.084;2024-03-08T04:42:05;9.87;;;8.17;;
1593;SDS011;790;47.000;16.084;2024-03-08T04:48:30;10.53;;;8.77;;
1593;SDS011;790;47.000;16.084;2024-03-08T04:54:53;10.73;;;8.70;;
1593;SDS011;790;47.000;16.084;2024-03-08T05:01:15;10.57;;;8.50;;
1593;SDS011;790;47.000;16.084;2024-03-08T05:12:32;9.13;;;7.83;;
1593;SDS011;790;47.000;16.084;2024-03-08T05:18:55;9.93;;;8.50;;
1593;SDS011;790;47.000;16.084;2024-03-08T05:25:17;10.63;;;8.73;;
1593;SDS011;790;47.000;16.084;2024-03-08T05:31:45;10.50;;;9.37;;
1593;SDS011;790;47.000;16.084;2024-03-08T05:38:08;12.37;;;9.33;;
1593;SDS011;790;47.000;16.084;2024-03-08T05:44:32;11.50;;;10.30;;
1593;SDS011;790;47.000;16.084;2024-03-08T05:50:56;13.50;;;9.30;;
1593;SDS011;790;47.000;16.084;2024-03-08T05:57:18;15.83;;;10.43;;
1593;SDS011;790;47.000;16.084;2024-03-08T06:03:43;16.07;;;10.73;;
1593;SDS011;790;47.000;16.084;2024-03-08T06:15:03;12.20;;;10.10;;
1593;SDS011;790;47.000;16.084;2024-03-08T06:21:25;15.53;;;10.87;;
1593;SDS011;790;47.000;16.084;2024-03-08T06:27:48;13.53;;;10.90;;
1593;SDS011;790;47.000;16.084;2024-03-08T06:34:13;13.73;;;10.73;;
1593;SDS011;790;47.000;16.084;2024-03-08T06:40:35;14.37;;;11.37;;
1593;SDS011;790;47.000;16.084;2024-03-08T06:46:57;16.70;;;13.00;;
1593;SDS011;790;47.000;16.084;2024-03-08T06:53:21;14.30;;;11.97;;
1593;SDS011;790;47.000;16.084;2024-03-08T06:59:44;12.37;;;11.03;;
1593;SDS011;790;47.000;16.084;2024-03-08T07:06:07;13.03;;;10.77;;
1593;SDS011;790;47.000;16.084;2024-03-08T07:17:25;13.37;;;11.23;;
1593;SDS011;790;47.000;16.084;2024-03-08T07:23:48;13.70;;;11.00;;
1593;SDS011;790;47.000;16.084;2024-03-08T07:30:35;13.20;;;11.80;;
1593;SDS011;790;47.000;16.084;2024-03-08T07:37:15;17.57;;;13.20;;
1593;SDS011;790;47.000;16.084;2024-03-08T07:43:39;17.43;;;13.20;;
1593;SDS011;790;47.000;16.084;2024-03-08T07:50:02;15.90;;;12.67;;
1593;SDS011;790;47.000;16.084;2024-03-08T07:56:26;16.93;;;12.33;;
1593;SDS011;790;47.000;16.084;2024-03-08T08:02:49;14.50;;;11.67;;
1593;SDS011;790;47.000;16.084;2024-03-08T08:09:12;12.83;;;10.93;;
1593;SDS011;790;47.000;16.084;2024-03-08T08:20:30;13.43;;;11.00;;
1593;SDS011;790;47.000;16.084;2024-03-08T08:26:52;12.07;;;10.63;;
1593;SDS011;790;47.000;16.084;2024-03-08T08:33:14;14.23;;;11.60;;
1593;SDS011;790;47.000;16.084;2024-03-08T08:39:37;13.53;;;11.43;;
1593;SDS011;790;47.000;16.084;2024-03-08T08:46:30;13.00;;;11.37;;
1593;SDS011;790;47.000;16.084;2024-03-08T08:52:53;15.00;;;11.43;;
1593;SDS011;790;47.000;16.084;2024-03-08T08:59:16;12.87;;;11.53;;
1593;SDS011;790;47.000;16.084;2024-03-08T09:05:38;13.77;;;11.27;;
1593;SDS011;790;47.000;16.084;2024-03-08T09:12:02;14.57;;;11.17;;
1593;SDS011;790;47.000;16.084;2024-03-08T09:23:21;13.03;;;10.50;;
1593;SDS011;790;47.000;16.084;2024-03-08T09:29:44;12.73;;;11.13;;
1593;SDS011;790;47.000;16.084;2024-03-08T09:36:06;12.23;;;10.60;;
1593;SDS011;790;47.000;16.084;2024-03-08T09:42:29;13.77;;;11.60;;
1593;SDS011;790;47.000;16.084;2024-03-08T09:48:52;12.87;;;11.40;;
1593;SDS011;790;47.000;16.084;2024-03-08T09:55:15;13.70;;;10.70;;
1593;SDS011;790;47.000;16.084;2024-03-08T10:01:42;11.93;;;10.73;;
1593;SDS011;790;47.000;16.084;2024-03-08T10:08:04;11.80;;;10.17;;
1593;SDS011;790;47.000;16.084;2024-03-08T10:14:27;13.43;;;11.37;;
1593;SDS011;790;47.000;16.084;2024-03-08T10:25:44;15.17;;;13.13;;
1593;SDS011;790;47.000;16.084;2024-03-08T10:32:07;16.47;;;13.20;;
1593;SDS011;790;47.000;16.084;2024-03-08T10:38:30;14.67;;;12.63;;
1593;SDS011;790;47.000;16.084;2024-03-08T10:44:58;16.17;;;13.60;;
1593;SDS011;790;47.000;16.084;2024-03-08T10:51:24;17.77;;;14.90;;
1593;SDS011;790;47.000;16.084;2024-03-08T10:57:47;16.60;;;13.60;;
1593;SDS011;790;47.000;16.084;2024-03-08T11:04:12;17.77;;;15.10;;
1593;SDS011;790;47.000;16.084;2024-03-08T11:10:35;18.67;;;15.13;;
1593;SDS011;790;47.000;16.084;2024-03-08T11:17:13;17.73;;;14.13;;
1593;SDS011;790;47.000;16.084;2024-03-08T11:28:31;11.87;;;10.60;;
1593;SDS011;790;47.000;16.084;2024-03-08T11:34:54;14.70;;;11.87;;
1593;SDS011;790;47.000;16.084;2024-03-08T11:41:17;14.73;;;11.67;;
1593;SDS011;790;47.000;16.084;2024-03-08T11:47:43;14.33;;;11.43;;
1593;SDS011;790;47.000;16.084;2024-03-08T11:54:06;41.30;;;28.07;;
1593;SDS011;790;47.000;16.084;2024-03-08T12:00:33;19.77;;;16.03;;
1593;SDS011;790;47.000;16.084;2024-03-08T12:07:00;36.73;;;26.27;;
1593;SDS011;790;47.000;16.084;2024-03-08T12:13:28;29.80;;;21.40;;
1593;SDS011;790;47.000;16.084;2024-03-08T12:19:54;33.47;;;24.73;;
1593;SDS011;790;47.000;16.084;2024-03-08T12:31:13;53.20;;;30.97;;
1593;SDS011;790;47.000;16.084;2024-03-08T12:37:37;21.23;;;16.97;;
1593;SDS011;790;47.000;16.084;2024-03-08T12:43:59;21.90;;;15.30;;
1593;SDS011;790;47.000;16.084;2024-03-08T12:50:23;48.37;;;33.03;;
1593;SDS011;790;47.000;16.084;2024-03-08T12:56:46;54.40;;;37.40;;
1593;SDS011;790;47.000;16.084;2024-03-08T13:03:10;20.47;;;15.13;;
1593;SDS011;790;47.000;16.084;2024-03-08T13:09:33;22.53;;;17.60;;
1593;SDS011;790;47.000;16.084;2024-03-08T13:15:57;34.70;;;24.63;;
1593;SDS011;790;47.000;16.084;2024-03-08T13:22:20;93.50;;;50.40;;
1593;SDS011;790;47.000;16.084;2024-03-08T13:33:39;56.83;;;31.90;;
1593;SDS011;790;47.000;16.084;2024-03-08T13:40:02;25.83;;;20.07;;
1593;SDS011;790;47.000;16.084;2024-03-08T13:46:25;21.17;;;16.67;;
1593;SDS011;790;47.000;16.084;2024-03-08T13:52:49;36.93;;;26.83;;
1593;SDS011;790;47.000;16.084;2024-03-08T13:59:13;32.03;;;23.03;;
1593;SDS011;790;47.000;16.084;2024-03-08T14:05:37;28.37;;;22.20;;
1593;SDS011;790;47.000;16.084;2024-03-08T14:12:03;23.60;;;19.87;;
1593;SDS011;790;47.000;16.084;2024-03-08T14:18:27;23.17;;;18.47;;
1593;SDS011;790;47.000;16.084;2024-03-08T14:24:50;21.03;;;16.63;;
1593;SDS011;790;47.000;16.084;2024-03-08T14:36:10;18.10;;;15.00;;
1593;SDS011;790;47.000;16.084;2024-03-08T14:42:33;18.60;;;14.93;;
1593;SDS011;790;47.000;16.084;2024-03-08T14:48:55;17.20;;;14.77;;
1593;SDS011;790;47.000;16.084;2024-03-08T14:55:19;17.90;;;14.37;;
1593;SDS011;790;47.000;16.084;2024-03-08T15:01:42;17.57;;;13.90;;
1593;SDS011;790;47.000;16.084;2024-03-08T15:08:04;17.00;;;14.40;;
1593;SDS011;790;47.000;16.084;2024-03-08T15:14:31;19.67;;;14.67;;
1593;SDS011;790;47.000;16.084;2024-03-08T15:20:54;16.37;;;13.73;;
1593;SDS011;790;47.000;16.084;2024-03-08T15:27:17;14.37;;;12.03;;
1593;SDS011;790;47.000;16.084;2024-03-08T15:38:35;12.17;;;10.47;;
1593;SDS011;790;47.000;16.084;2024-03-08T15:44:57;11.40;;;10.03;;
1593;SDS011;790;47.000;16.084;2024-03-08T15:51:21;13.37;;;10.97;;
1593;SDS011;790;47.000;16.084;2024-03-08T15:57:45;14.00;;;11.00;;
1593;SDS011;790;47.000;16.084;2024-03-08T16:04:09;13.00;;;11.47;;
1593;SDS011;790;47.000;16.084;2024-03-08T16:10:31;15.97;;;12.70;;
1593;SDS011;790;47.000;16.084;2024-03-08T16:16:55;15.43;;;12.17;;
1593;SDS011;790;47.000;16.084;2024-03-08T16:23:17;14.67;;;12.07;;
1593;SDS011;790;47.000;16.084;2024-03-08T16:29:40;14.40;;;10.93;;
1593;SDS011;790;47.000;16.084;2024-03-08T16:41:00;14.70;;;11.90;;
1593;SDS011;790;47.000;16.084;2024-03-08T16:47:23;18.87;;;13.30;;
1593;SDS011;790;47.000;16.084;2024-03-08T16:53:45;21.60;;;13.03;;
1593;SDS011;790;47.000;16.084;2024-03-08T17:00:09;18.30;;;12.27;;
1593;SDS011;790;47.000;16.084;2024-03-08T17:06:38;16.33;;;12.20;;
1593;SDS011;790;47.000;16.084;2024-03-08T17:13:00;16.07;;;12.03;;
1593;SDS011;790;47.000;16.084;2024-03-08T17:19:27;15.47;;;10.77;;
1593;SDS011;790;47.000;16.084;2024-03-08T17:25:49;14.47;;;11.90;;
1593;SDS011;790;47.000;16.084;2024-03-08T17:32:12;13.87;;;11.43;;
1593;SDS011;790;47.000;16.084;2024-03-08T17:43:33;18.10;;;12.43;;
1593;SDS011;790;47.000;16.084;2024-03-08T17:49:55;18.90;;;13.67;;
1593;SDS011;790;47.000;16.084;2024-03-08T17:56:19;15.67;;;12.57;;
1593;SDS011;790;47.000;16.084;2024-03-08T18:02:44;16.83;;;12.77;;
1593;SDS011;790;47.000;16.084;2024-03-08T18:09:10;17.07;;;13.07;;
1593;SDS011;790;47.000;16.084;2024-03-08T18:15:32;19.83;;;14.57;;
1593;SDS011;790;47.000;16.084;2024-03-08T18:21:57;19.57;;;15.27;;
1593;SDS011;790;47.000;16.084;2024-03-08T18:28:52;20.33;;;15.20;;
1593;SDS011;790;47.000;16.084;2024-03-08T18:35:15;19.03;;;14.83;;
1593;SDS011;790;47.000;16.084;2024-03-08T18:46:36;20.10;;;15.40;;
1593;SDS011;790;47.000;16.084;2024-03-08T18:53:01;19.50;;;15.13;;
1593;SDS011;790;47.000;16.084;2024-03-08T18:59:27;19.67;;;15.17;;
1593;SDS011;790;47.000;16.084;2024-03-08T19:05:51;18.53;;;14.37;;
1593;SDS011;790;47.000;16.084;2024-03-08T19:12:14;20.93;;;14.87;;
1593;SDS011;790;47.000;16.084;2024-03-08T19:18:38;19.37;;;14.80;;
1593;SDS011;790;47.000;16.084;2024-03-08T19:25:02;21.33;;;14.77;;
1593;SDS011;790;47.000;16.084;2024-03-08T19:31:27;18.70;;;14.97;;
1593;SDS011;790;47.000;16.084;2024-03-08T19:37:49;22.67;;;16.07;;
1593;SDS011;790;47.000;16.084;2024-03-08T19:49:39;21.20;;;15.53;;
1593;SDS011;790;47.000;16.084;2024-03-08T19:56:01;22.33;;;16.93;;
1593;SDS011;790;47.000;16.084;2024-03-08T20:02:25;21.10;;;16.80;;
1593;SDS011;790;47.000;16.084;2024-03-08T20:08:49;21.63;;;16.13;;
1593;SDS011;790;47.000;16.084;2024-03-08T20:15:12;22.60;;;17.07;;
1593;SDS011;790;47.000;16.084;2024-03-08T20:21:35;21.00;;;15.67;;
1593;SDS011;790;47.000;16.084;2024-03-08T20:28:00;23.87;;;16.67;;
1593;SDS011;790;47.000;16.084;2024-03-08T20:34:24;18.80;;;15.73;;
1593;SDS011;790;47.000;16.084;2024-03-08T20:40:47;23.53;;;16.87;;
1593;SDS011;790;47.000;16.084;2024-03-08T20:52:06;23.53;;;17.87;;
1593;SDS011;790;47.000;16.084;2024-03-08T20:58:29;22.27;;;16.13;;
1593;SDS011;790;47.000;16.084;2024-03-08T21:04:51;21.70;;;17.27;;
1593;SDS011;790;47.000;16.084;2024-03-08T21:11:16;21.63;;;16.50;;
1593;SDS011;790;47.000;16.084;2024-03-08T21:17:38;22.90;;;17.23;;
1593;SDS011;790;47.000;16.084;2024-03-08T21:24:01;23.03;;;17.97;;
1593;SDS011;790;47.000;16.084;2024-03-08T21:30:26;26.10;;;17.80;;
1593;SDS011;790;47.000;16.084;2024-03-08T21:36:49;22.00;;;16.93;;
1593;SDS011;790;47.000;16.084;2024-03-08T21:43:11;23.10;;;18.00;;
1593;SDS011;790;47.000;16.084;2024-03-08T21:54:30;21.90;;;16.67;;
1593;SDS011;790;47.000;16.084;2024-03-08T22:00:53;21.03;;;16.80;;
1593;SDS011;790;47.000;16.084;2024-03-08T22:07:15;23.57;;;18.13;;
1593;SDS011;790;47.000;16.084;2024-03-08T22:13:40;22.20;;;16.73;;
1593;SDS011;790;47.000;16.084;2024-03-08T22:20:05;23.10;;;17.80;;
1593;SDS011;790;47.000;16.084;2024-03-08T22:26:35;23.63;;;16.00;;
1593;SDS011;790;47.000;16.084;2024-03-08T22:32:59;21.07;;;17.10;;
1593;SDS011;790;47.000;16.084;2024-03-08T22:39:22;20.80;;;17.13;;
1593;SDS011;790;47.000;16.084;2024-03-08T22:45:44;23.77;;;17.00;;
1593;SDS011;790;47.000;16.084;2024-03-08T22:57:05;19.37;;;15.97;;
1593;SDS011;790;47.000;16.084;2024-03-08T23:03:27;23.10;;;16.80;;
1593;SDS011;790;47.000;16.084;2024-03-08T23:09:51;23.83;;;17.60;;
1593;SDS011;790;47.000;16.084;2024-03-08T23:16:16;21.67;;;16.80;;
1593;SDS011;790;47.000;16.084;2024-03-08T23:22:40;22.83;;;18.63;;
1593;SDS011;790;47.000;16.084;2024-03-08T23:29:06;20.53;;;16.07;;
1593;SDS011;790;47.000;16.084;2024-03-08T23:35:30;21.50;;;15.77;;
1593;SDS011;790;47.000;16.084;2024-03-08T23:41:52;23.40;;;17.97;;
1593;SDS011;790;47.000;16.084;2024-03-08T23:48:14;22.73;;;17.67;;
1593;SDS011;790;47.000;16.084;2024-03-08T23:59:33;22.57;;;18.33;;
